Time;durP1;ratioP1;P1;durP2;ratioP2;P2;SDS_P1;SDS_P2;PMS_P1;PMS_P2;Temp;Humidity;BMP_temperature;BMP_pressure;BME280_temperature;BME280_humidity;BME280_pressure;Samples;Min_cycle;Max_cycle;Signal;HPM_P1;HPM_P2
2022/10/16 00:02:44;;;;;;;2.30;0.80;;;;;;;-145.48;100.00;64539.38;6039415;29;20261;-88
2022/10/16 00:05:51;;;;;;;0.90;0.57;;;;;;;-145.48;100.00;64539.38;6039874;29;20423;-88
2022/10/16 00:08:53;;;;;;;2.03;0.70;;;;;;;-145.48;100.00;64539.38;6035632;29;20120;-87
2022/10/16 00:11:54;;;;;;;3.80;0.70;;;;;;;-145.48;100.00;64539.38;6043114;29;20069;-87
2022/10/16 00:14:56;;;;;;;1.92;0.70;;;;;;;-145.48;100.00;64539.38;6037244;29;20045;-88
2022/10/16 00:17:58;;;;;;;0.70;0.65;;;;;;;-145.48;100.00;64539.38;6046053;29;20080;-88
2022/10/16 00:21:12;;;;;;;0.77;0.60;;;;;;;-145.48;100.00;64539.38;6041955;29;20579;-88
2022/10/16 00:24:14;;;;;;;1.80;0.60;;;;;;;-145.48;100.00;64539.38;6038464;29;20056;-87
2022/10/16 00:27:16;;;;;;;1.15;0.80;;;;;;;-145.48;100.00;64539.38;6036763;29;20444;-87
2022/10/16 00:30:19;;;;;;;1.50;0.80;;;;;;;-145.48;100.00;64539.38;6046247;29;20588;-88
2022/10/16 00:33:21;;;;;;;2.53;0.90;;;;;;;-145.48;100.00;64539.38;6045632;29;20444;-88
2022/10/16 00:36:25;;;;;;;2.30;0.75;;;;;;;-145.48;100.00;64539.38;6044494;29;20116;-87
2022/10/16 00:39:26;;;;;;;1.88;0.80;;;;;;;-145.48;100.00;64539.38;6040985;29;20060;-88
2022/10/16 00:42:28;;;;;;;2.42;1.00;;;;;;;-145.48;100.00;64539.38;6038672;29;20064;-88
2022/10/16 00:45:30;;;;;;;2.20;1.00;;;;;;;-145.48;100.00;64539.38;6041861;29;20614;-88
2022/10/16 00:48:32;;;;;;;3.13;1.20;;;;;;;-145.48;100.00;64539.38;6043168;29;20614;-88
2022/10/16 00:51:39;;;;;;;2.45;1.10;;;;;;;-145.48;100.00;64539.38;6040327;29;20101;-88
2022/10/16 00:54:41;;;;;;;1.95;1.40;;;;;;;-145.48;100.00;64539.38;6037974;29;20037;-88
2022/10/16 00:57:44;;;;;;;4.00;1.40;;;;;;;-145.48;100.00;64539.38;6041119;29;20045;-88
2022/10/16 01:00:45;;;;;;;2.47;1.40;;;;;;;-145.48;100.00;64539.38;6035587;29;20057;-88
2022/10/16 01:03:47;;;;;;;2.50;1.20;;;;;;;-145.48;100.00;64539.38;6031417;29;20398;-88
2022/10/16 01:07:06;;;;;;;1.80;1.00;;;;;;;-145.48;100.00;64539.38;6041049;29;20041;-88
2022/10/16 01:10:40;;;;;;;3.42;1.30;;;;;;;-145.48;100.00;64539.38;6044205;29;20411;-88
2022/10/16 01:13:48;;;;;;;2.42;1.40;;;;;;;-145.48;100.00;64539.38;6039369;29;20097;-88
2022/10/16 01:16:59;;;;;;;2.33;1.17;;;;;;;-145.48;100.00;64539.38;6035154;29;20635;-88
2022/10/16 01:20:06;;;;;;;3.08;1.58;;;;;;;-145.48;100.00;64539.38;6048640;29;20045;-88
2022/10/16 01:23:18;;;;;;;2.28;1.45;;;;;;;-145.48;100.00;64539.38;6043257;29;20052;-87
2022/10/16 01:26:29;;;;;;;3.55;1.50;;;;;;;-145.48;100.00;64539.38;6042754;29;20045;-88
2022/10/16 01:29:51;;;;;;;;;;;;;;;-145.48;100.00;64539.38;6045336;29;20041;-88
2022/10/16 01:33:00;;;;;;;2.58;1.48;;;;;;;-145.48;100.00;64539.38;6039843;29;20444;-88
2022/10/16 01:36:26;;;;;;;2.95;1.60;;;;;;;-145.48;100.00;64539.38;6047010;29;20174;-88
2022/10/16 01:39:34;;;;;;;2.55;1.30;;;;;;;-145.48;100.00;64539.38;6041330;29;20600;-88
2022/10/16 01:42:44;;;;;;;4.10;1.90;;;;;;;-145.48;100.00;64539.38;6041359;29;20100;-88
2022/10/16 01:45:47;;;;;;;2.75;1.40;;;;;;;-145.48;100.00;64539.38;6048681;29;20127;-87
2022/10/16 01:48:51;;;;;;;3.28;1.40;;;;;;;-145.48;100.00;64539.38;6054862;29;20041;-87
2022/10/16 01:51:58;;;;;;;2.60;1.30;;;;;;;-145.48;100.00;64539.38;6045961;29;20619;-88
2022/10/16 01:55:06;;;;;;;2.22;1.10;;;;;;;-145.48;100.00;64539.38;6044852;29;20037;-88
2022/10/16 01:58:10;;;;;;;6.00;1.50;;;;;;;-145.48;100.00;64539.38;6041849;29;20049;-87
2022/10/16 02:01:18;;;;;;;5.97;1.70;;;;;;;-145.48;100.00;64539.38;6050479;29;20111;-87
2022/10/16 02:04:45;;;;;;;2.45;1.30;;;;;;;-145.48;100.00;64539.38;6037073;29;20401;-88
2022/10/16 02:07:48;;;;;;;2.80;1.30;;;;;;;-145.48;100.00;64539.38;6045436;29;20456;-87
2022/10/16 02:10:50;;;;;;;2.42;1.20;;;;;;;-145.48;100.00;64539.38;6045263;29;20088;-87
2022/10/16 02:13:58;;;;;;;1.63;1.20;;;;;;;-145.48;100.00;64539.38;6043261;29;20073;-88
2022/10/16 02:17:00;;;;;;;2.88;1.33;;;;;;;-145.48;100.00;64539.38;6052668;29;20405;-87
2022/10/16 02:20:03;;;;;;;3.60;1.40;;;;;;;-145.48;100.00;64539.38;6040170;29;20109;-87
2022/10/16 02:23:08;;;;;;;3.35;1.20;;;;;;;-145.48;100.00;64539.38;6042516;29;20484;-87
2022/10/16 02:26:15;;;;;;;2.28;1.55;;;;;;;-145.48;100.00;64539.38;6044520;29;20120;-88
2022/10/16 02:29:23;;;;;;;3.33;1.60;;;;;;;-145.48;100.00;64539.38;6041287;29;20041;-87
2022/10/16 02:32:30;;;;;;;2.28;1.25;;;;;;;-145.48;100.00;64539.38;6046651;29;20065;-87
2022/10/16 02:35:32;;;;;;;8.18;1.48;;;;;;;-145.48;100.00;64539.38;6041910;29;20044;-87
2022/10/16 02:38:35;;;;;;;2.50;1.40;;;;;;;-145.48;100.00;64539.38;6046022;29;20037;-87
2022/10/16 02:41:37;;;;;;;5.63;1.67;;;;;;;-145.48;100.00;64539.38;6036924;29;20520;-87
2022/10/16 02:44:38;;;;;;;2.95;1.70;;;;;;;-145.48;100.00;64539.38;6034056;29;20053;-87
2022/10/16 02:47:40;;;;;;;3.42;1.77;;;;;;;-145.48;100.00;64539.38;6044874;29;20041;-88
2022/10/16 02:50:42;;;;;;;3.35;1.52;;;;;;;-145.48;100.00;64539.38;6053288;29;20422;-87
2022/10/16 02:53:43;;;;;;;1.90;1.52;;;;;;;-145.48;100.00;64539.38;6032956;29;20048;-88
2022/10/16 02:56:45;;;;;;;2.53;1.60;;;;;;;-145.48;100.00;64539.38;6042473;29;20057;-87
2022/10/16 02:59:47;;;;;;;2.22;1.70;;;;;;;-145.48;100.00;64539.38;6045704;29;20096;-88
2022/10/16 03:02:49;;;;;;;3.95;1.58;;;;;;;-145.48;100.00;64539.38;6038807;29;20639;-87
2022/10/16 03:05:51;;;;;;;3.78;2.28;;;;;;;-145.48;100.00;64539.38;6045517;29;20048;-88
2022/10/16 03:08:52;;;;;;;2.47;1.50;;;;;;;-145.48;100.00;64539.38;6041016;29;20048;-87
2022/10/16 03:11:54;;;;;;;4.10;1.83;;;;;;;-145.48;100.00;64539.38;6045271;29;20074;-87
2022/10/16 03:14:57;;;;;;;3.17;1.95;;;;;;;-145.48;100.00;64539.38;6044109;29;20137;-87
2022/10/16 03:17:58;;;;;;;3.40;1.83;;;;;;;-145.48;100.00;64539.38;6044165;29;20049;-88
2022/10/16 03:21:00;;;;;;;2.85;1.50;;;;;;;-145.48;100.00;64539.38;6034996;29;20060;-87
2022/10/16 03:24:02;;;;;;;3.67;1.40;;;;;;;-145.48;100.00;64539.38;6041120;29;20492;-87
2022/10/16 03:27:04;;;;;;;6.05;2.03;;;;;;;-145.48;100.00;64539.38;6038165;29;20177;-87
2022/10/16 03:30:07;;;;;;;4.90;1.50;;;;;;;-145.48;100.00;64539.38;6028179;29;20045;-87
2022/10/16 03:33:08;;;;;;;3.97;1.90;;;;;;;-145.48;100.00;64539.38;6036243;29;20076;-87
2022/10/16 03:36:10;;;;;;;5.93;1.70;;;;;;;-145.48;100.00;64539.38;6040432;29;20061;-88
2022/10/16 03:39:12;;;;;;;2.42;1.73;;;;;;;-145.48;100.00;64539.38;6034996;29;20056;-87
2022/10/16 03:42:14;;;;;;;2.40;1.50;;;;;;;-145.48;100.00;64539.38;6047503;29;20072;-87
2022/10/16 03:45:15;;;;;;;5.82;2.00;;;;;;;-145.48;100.00;64539.38;6044653;29;20056;-87
2022/10/16 03:48:18;;;;;;;3.05;1.52;;;;;;;-145.48;100.00;64539.38;6036090;29;20045;-87
2022/10/16 03:51:20;;;;;;;5.97;1.40;;;;;;;-145.48;100.00;64539.38;6035372;29;20397;-87
2022/10/16 03:54:22;;;;;;;3.63;1.52;;;;;;;-145.48;100.00;64539.38;6041669;29;20048;-87
2022/10/16 03:57:24;;;;;;;4.50;1.50;;;;;;;-145.48;100.00;64539.38;6041648;29;20044;-87
2022/10/16 04:00:26;;;;;;;4.15;1.60;;;;;;;-145.48;100.00;64539.38;6041748;29;20041;-87
2022/10/16 04:03:28;;;;;;;3.35;1.50;;;;;;;-145.48;100.00;64539.38;6041722;29;20053;-87
2022/10/16 04:06:30;;;;;;;2.78;1.60;;;;;;;-145.48;100.00;64539.38;6037666;29;20508;-87
2022/10/16 04:09:32;;;;;;;4.93;1.70;;;;;;;-145.48;100.00;64539.38;6037790;29;20087;-87
2022/10/16 04:12:33;;;;;;;3.42;2.03;;;;;;;-145.48;100.00;64539.38;6055071;29;20051;-87
2022/10/16 04:15:35;;;;;;;5.40;1.70;;;;;;;-145.48;100.00;64539.38;6037226;29;20045;-87
2022/10/16 04:18:37;;;;;;;3.00;1.42;;;;;;;-145.48;100.00;64539.38;6042749;29;20048;-87
2022/10/16 04:21:39;;;;;;;5.75;1.70;;;;;;;-145.48;100.00;64539.38;6043666;29;20278;-87
2022/10/16 04:24:41;;;;;;;2.67;1.70;;;;;;;-145.48;100.00;64539.38;6043247;29;20411;-87
2022/10/16 04:27:42;;;;;;;4.63;1.67;;;;;;;-145.48;100.00;64539.38;6036831;29;20052;-87
2022/10/16 04:30:46;;;;;;;4.00;1.70;;;;;;;-145.48;100.00;64539.38;6038832;29;20089;-87
2022/10/16 04:33:48;;;;;;;2.63;1.58;;;;;;;-145.48;100.00;64539.38;6039424;29;20049;-87
2022/10/16 04:36:50;;;;;;;3.90;1.80;;;;;;;-145.48;100.00;64539.38;6049780;29;20049;-87
2022/10/16 04:39:53;;;;;;;4.07;2.20;;;;;;;-145.48;100.00;64539.38;6042038;29;20056;-87
2022/10/16 04:42:54;;;;;;;4.13;1.85;;;;;;;-145.48;100.00;64539.38;6044943;29;20045;-87
2022/10/16 04:45:56;;;;;;;4.70;1.80;;;;;;;-145.48;100.00;64539.38;6044727;29;20053;-88
2022/10/16 04:48:58;;;;;;;5.60;1.70;;;;;;;-145.48;100.00;64539.38;6044662;29;20045;-87
2022/10/16 04:52:00;;;;;;;2.65;1.80;;;;;;;-145.48;100.00;64539.38;6038131;29;20879;-87
2022/10/16 04:55:02;;;;;;;5.40;1.90;;;;;;;-145.48;100.00;64539.38;6043030;29;20085;-87
2022/10/16 04:58:05;;;;;;;2.17;1.60;;;;;;;-145.48;100.00;64539.38;6049794;29;20131;-87
2022/10/16 05:01:07;;;;;;;3.45;1.70;;;;;;;-145.48;100.00;64539.38;6044683;29;20124;-87
2022/10/16 05:04:09;;;;;;;4.45;1.70;;;;;;;-145.48;100.00;64539.38;6040599;29;20072;-87
2022/10/16 05:07:11;;;;;;;2.65;1.92;;;;;;;-145.48;100.00;64539.38;6042743;29;20041;-87
2022/10/16 05:10:13;;;;;;;2.53;1.73;;;;;;;-145.48;100.00;64539.38;6041376;29;20134;-87
2022/10/16 05:13:15;;;;;;;2.40;1.58;;;;;;;-145.48;100.00;64539.38;6049335;29;20631;-87
2022/10/16 05:16:17;;;;;;;4.10;1.90;;;;;;;-145.48;100.00;64539.38;6042412;29;20697;-87
2022/10/16 05:19:18;;;;;;;2.38;1.63;;;;;;;-145.48;100.00;64539.38;6046356;29;20057;-87
2022/10/16 05:22:29;;;;;;;3.20;1.60;;;;;;;-145.48;100.00;64539.38;6042686;29;20108;-87
2022/10/16 05:25:30;;;;;;;1.58;1.40;;;;;;;-145.48;100.00;64539.38;6045095;29;20865;-87
2022/10/16 05:28:32;;;;;;;4.22;1.92;;;;;;;-145.48;100.00;64539.38;6040630;29;20041;-87
2022/10/16 05:31:34;;;;;;;7.07;1.60;;;;;;;-145.48;100.00;64539.38;6048777;29;20103;-87
2022/10/16 05:34:36;;;;;;;3.67;1.70;;;;;;;-145.48;100.00;64539.38;6043102;29;20059;-87
2022/10/16 05:37:37;;;;;;;7.07;1.60;;;;;;;-145.48;100.00;64539.38;6042525;29;20037;-87
2022/10/16 05:40:39;;;;;;;3.30;1.60;;;;;;;-145.48;100.00;64539.38;6046251;29;20127;-87
2022/10/16 05:43:41;;;;;;;1.92;1.50;;;;;;;-145.48;100.00;64539.38;6039143;29;20044;-87
2022/10/16 05:46:43;;;;;;;1.40;1.30;;;;;;;-145.48;100.00;64539.38;6041550;29;20115;-87
2022/10/16 05:49:44;;;;;;;3.97;1.50;;;;;;;-145.48;100.00;64539.38;6052785;29;20115;-87
2022/10/16 05:52:46;;;;;;;2.00;1.70;;;;;;;-145.48;100.00;64539.38;6037349;29;20488;-87
2022/10/16 05:55:52;;;;;;;3.10;1.50;;;;;;;-145.48;100.00;64539.38;6052993;29;20067;-87
2022/10/16 05:58:54;;;;;;;4.28;1.70;;;;;;;-145.48;100.00;64539.38;6041120;29;20249;-87
2022/10/16 06:01:56;;;;;;;3.03;1.58;;;;;;;-145.48;100.00;64539.38;6043376;29;20049;-88
2022/10/16 06:04:58;;;;;;;3.28;1.95;;;;;;;-145.48;100.00;64539.38;6050088;29;20500;-87
2022/10/16 06:08:00;;;;;;;5.03;1.55;;;;;;;-145.48;100.00;64539.38;6034470;29;20124;-87
2022/10/16 06:11:03;;;;;;;2.08;1.40;;;;;;;-145.48;100.00;64539.38;6052543;29;20049;-87
2022/10/16 06:14:06;;;;;;;3.65;1.60;;;;;;;-145.48;100.00;64539.38;6043014;29;20643;-87
2022/10/16 06:17:08;;;;;;;2.80;1.50;;;;;;;-145.48;100.00;64539.38;6045164;29;20464;-87
2022/10/16 06:20:10;;;;;;;1.90;1.50;;;;;;;-145.48;100.00;64539.38;6046410;29;20417;-87
2022/10/16 06:23:12;;;;;;;2.35;1.58;;;;;;;-145.48;100.00;64539.38;6041537;29;20048;-87
2022/10/16 06:26:16;;;;;;;2.67;1.75;;;;;;;-145.48;100.00;64539.38;6046311;29;20821;-87
2022/10/16 06:29:18;;;;;;;4.90;1.95;;;;;;;-145.48;100.00;64539.38;6041790;29;20749;-87
2022/10/16 06:32:21;;;;;;;2.05;1.67;;;;;;;-145.48;100.00;64539.38;6045738;29;20049;-87
2022/10/16 06:35:23;;;;;;;2.65;1.40;;;;;;;-145.48;100.00;64539.38;6048023;29;20051;-87
2022/10/16 06:38:25;;;;;;;3.50;1.65;;;;;;;-145.48;100.00;64539.38;6039327;29;20081;-87
2022/10/16 06:41:26;;;;;;;1.85;1.50;;;;;;;-145.48;100.00;64539.38;6043576;29;20049;-87
2022/10/16 06:44:28;;;;;;;2.13;1.50;;;;;;;-145.48;100.00;64539.38;6040185;29;20056;-87
2022/10/16 06:47:30;;;;;;;3.58;1.92;;;;;;;-145.48;100.00;64539.38;6043811;29;20049;-87
2022/10/16 06:50:32;;;;;;;6.05;2.60;;;;;;;-145.48;100.00;64539.38;6039661;29;20079;-87
2022/10/16 06:53:36;;;;;;;3.78;1.90;;;;;;;-145.48;100.00;64539.38;6045258;29;20757;-87
2022/10/16 06:56:59;;;;;;;2.08;1.60;;;;;;;-145.48;100.00;64539.38;6043127;29;20058;-87
2022/10/16 07:00:01;;;;;;;2.20;1.60;;;;;;;-145.48;100.00;64539.38;6046583;29;20053;-87
2022/10/16 07:03:03;;;;;;;2.30;1.25;;;;;;;-145.48;100.00;64539.38;6043923;29;20045;-87
2022/10/16 07:06:06;;;;;;;2.30;1.38;;;;;;;-145.48;100.00;64539.38;6057402;29;20084;-87
2022/10/16 07:09:10;;;;;;;2.67;1.38;;;;;;;-145.48;100.00;64539.38;6044116;29;20055;-87
2022/10/16 07:12:12;;;;;;;1.50;1.40;;;;;;;-145.48;100.00;64539.38;6045897;29;20113;-87
2022/10/16 07:15:14;;;;;;;1.75;1.20;;;;;;;-145.48;100.00;64539.38;6043701;29;20595;-87
2022/10/16 07:18:16;;;;;;;3.53;1.30;;;;;;;-145.48;100.00;64539.38;6043909;29;20053;-87
2022/10/16 07:21:22;;;;;;;2.13;1.40;;;;;;;-145.48;100.00;64539.38;6042708;29;20045;-87
2022/10/16 07:24:24;;;;;;;2.17;1.30;;;;;;;-145.48;100.00;64539.38;6040248;29;20590;-88
2022/10/16 07:27:27;;;;;;;1.30;1.10;;;;;;;-145.48;100.00;64539.38;6045024;29;20037;-87
2022/10/16 07:30:29;;;;;;;1.75;1.30;;;;;;;-145.48;100.00;64539.38;6045184;29;20132;-87
2022/10/16 07:33:32;;;;;;;2.95;1.40;;;;;;;-145.48;100.00;64539.38;6050064;29;20048;-87
2022/10/16 07:36:34;;;;;;;2.35;1.23;;;;;;;-145.48;100.00;64539.38;6044394;29;20052;-87
2022/10/16 07:39:36;;;;;;;1.95;1.40;;;;;;;-145.48;100.00;64539.38;6043116;29;20048;-87
2022/10/16 07:42:37;;;;;;;1.70;1.42;;;;;;;-145.48;100.00;64539.38;6049423;29;20426;-87
2022/10/16 07:45:49;;;;;;;2.45;1.48;;;;;;;-145.48;100.00;64539.38;6043465;29;20047;-87
2022/10/16 07:48:56;;;;;;;1.35;1.05;;;;;;;-145.48;100.00;64539.38;6043014;29;20405;-87
2022/10/16 07:51:58;;;;;;;1.35;0.90;;;;;;;-145.48;100.00;64539.38;6044256;29;20046;-87
2022/10/16 07:54:59;;;;;;;1.60;1.10;;;;;;;-145.48;100.00;64539.38;6044932;29;20182;-87
2022/10/16 07:58:02;;;;;;;1.20;1.10;;;;;;;-145.48;100.00;64539.38;6037309;29;20674;-87
2022/10/16 08:01:05;;;;;;;3.22;1.10;;;;;;;-145.48;100.00;64539.38;6038643;29;20049;-88
2022/10/16 08:04:08;;;;;;;2.38;1.17;;;;;;;-145.48;100.00;64539.38;6042203;29;20053;-88
2022/10/16 08:07:10;;;;;;;2.47;1.20;;;;;;;-145.48;100.00;64539.38;6044381;29;20429;-88
2022/10/16 08:10:17;;;;;;;1.85;1.13;;;;;;;-145.48;100.00;64539.38;6045096;29;20064;-88
2022/10/16 08:13:19;;;;;;;3.30;1.05;;;;;;;-145.48;100.00;64539.38;6040421;29;20123;-88
2022/10/16 08:16:22;;;;;;;1.67;1.20;;;;;;;-145.48;100.00;64539.38;6044565;29;20395;-88
2022/10/16 08:19:25;;;;;;;3.28;1.00;;;;;;;-145.48;100.00;64539.38;6039917;29;20044;-88
2022/10/16 08:22:27;;;;;;;1.65;1.02;;;;;;;-145.48;100.00;64539.38;6042998;29;20377;-88
2022/10/16 08:25:29;;;;;;;2.47;1.02;;;;;;;-145.48;100.00;64539.38;6041382;29;20041;-88
2022/10/16 08:28:31;;;;;;;1.45;1.10;;;;;;;-145.48;100.00;64539.38;6042681;29;20044;-88
2022/10/16 08:31:33;;;;;;;0.90;0.90;;;;;;;-145.48;100.00;64539.38;6039977;29;20049;-88
2022/10/16 08:34:35;;;;;;;1.15;1.00;;;;;;;-145.48;100.00;64539.38;6042029;29;20089;-88
2022/10/16 08:37:38;;;;;;;3.38;1.10;;;;;;;-145.48;100.00;64539.38;6045824;29;20041;-88
2022/10/16 08:40:42;;;;;;;1.60;1.25;;;;;;;-145.48;100.00;64539.38;6047858;29;20037;-88
2022/10/16 08:44:13;;;;;;;1.10;1.00;;;;;;;-145.48;100.00;64539.38;6047923;29;20136;-88
2022/10/16 08:47:53;;;;;;;1.15;1.02;;;;;;;-145.48;100.00;64539.38;6047491;29;20044;-88
2022/10/16 08:50:55;;;;;;;1.10;0.93;;;;;;;-145.48;100.00;64539.38;6048466;29;20563;-88
2022/10/16 08:54:01;;;;;;;1.75;1.10;;;;;;;-145.48;100.00;64539.38;6050534;29;20045;-88
2022/10/16 08:57:13;;;;;;;0.90;0.80;;;;;;;-145.48;100.00;64539.38;6035024;29;20115;-88
2022/10/16 09:00:24;;;;;;;1.08;0.95;;;;;;;-145.48;100.00;64539.38;6036827;29;20077;-88
2022/10/16 09:03:46;;;;;;;1.67;1.10;;;;;;;-145.48;100.00;64539.38;6047672;29;20052;-88
2022/10/16 09:07:01;;;;;;;3.65;1.20;;;;;;;-145.48;100.00;64539.38;6024487;29;20057;-88
2022/10/16 09:10:04;;;;;;;3.55;1.20;;;;;;;-145.48;100.00;64539.38;6034329;29;20050;-88
2022/10/16 09:13:29;;;;;;;0.70;0.70;;;;;;;-145.48;100.00;64539.38;6037026;29;20559;-88
2022/10/16 09:16:39;;;;;;;2.50;1.10;;;;;;;-145.48;100.00;64539.38;6038919;29;20071;-88
2022/10/16 09:19:56;;;;;;;1.30;1.00;;;;;;;-145.48;100.00;64539.38;6034108;29;20590;-88
2022/10/16 09:23:34;;;;;;;1.77;0.90;;;;;;;-145.48;100.00;64539.38;6028916;29;20085;-88
2022/10/16 09:26:36;;;;;;;4.10;1.10;;;;;;;-145.48;100.00;64539.38;6031003;29;20037;-88
2022/10/16 09:29:40;;;;;;;2.53;1.08;;;;;;;-145.48;100.00;64539.38;6039690;29;20053;-88
2022/10/16 09:32:42;;;;;;;1.10;0.98;;;;;;;-145.48;100.00;64539.38;6035827;29;20334;-88
2022/10/16 09:35:53;;;;;;;2.53;0.70;;;;;;;-145.48;100.00;64539.38;6021252;29;20245;-88
2022/10/16 09:39:06;;;;;;;1.85;0.90;;;;;;;-145.48;100.00;64539.38;6029626;29;20522;-88
2022/10/16 09:42:14;;;;;;;1.33;0.88;;;;;;;-145.48;100.00;64539.38;6016393;29;20045;-88
2022/10/16 09:45:24;;;;;;;0.80;0.80;;;;;;;-145.48;100.00;64539.38;6037306;29;20037;-88
2022/10/16 09:48:43;;;;;;;2.00;0.70;;;;;;;-145.48;100.00;64539.38;6039448;29;20193;-88
2022/10/16 09:51:45;;;;;;;1.00;0.60;;;;;;;-145.48;100.00;64539.38;6046942;29;20517;-89
2022/10/16 09:54:58;;;;;;;2.88;0.73;;;;;;;-145.48;100.00;64539.38;6036323;29;20136;-88
2022/10/16 09:57:59;;;;;;;2.28;0.90;;;;;;;-145.48;100.00;64539.38;6039853;29;20053;-88
2022/10/16 10:01:02;;;;;;;2.92;1.23;;;;;;;-145.48;100.00;64539.38;6040486;29;20491;-88
2022/10/16 10:04:04;;;;;;;2.50;0.80;;;;;;;-145.48;100.00;64539.38;6042216;29;20056;-88
2022/10/16 10:07:18;;;;;;;1.33;0.77;;;;;;;-145.48;100.00;64539.38;6038746;29;20053;-88
2022/10/16 10:10:26;;;;;;;3.05;0.85;;;;;;;-145.48;100.00;64539.38;6036601;29;20529;-88
2022/10/16 10:13:28;;;;;;;1.02;0.63;;;;;;;-145.48;100.00;64539.38;6053399;29;20037;-88
2022/10/16 10:16:30;;;;;;;1.88;0.60;;;;;;;-145.48;100.00;64539.38;6044864;29;20056;-88
2022/10/16 10:19:38;;;;;;;1.33;0.80;;;;;;;-145.48;100.00;64539.38;6046256;29;20044;-88
2022/10/16 10:22:46;;;;;;;3.25;0.90;;;;;;;-145.48;100.00;64539.38;6047455;29;20076;-89
2022/10/16 10:26:06;;;;;;;2.05;0.70;;;;;;;-145.48;100.00;64539.38;6037346;29;20040;-89
2022/10/16 10:29:41;;;;;;;1.13;0.60;;;;;;;-145.48;100.00;64539.38;6038949;29;20052;-88
2022/10/16 10:33:09;;;;;;;3.17;0.68;;;;;;;-145.48;100.00;64539.38;6057288;29;20467;-89
2022/10/16 10:36:36;;;;;;;0.77;0.65;;;;;;;-145.48;100.00;64539.38;6042861;29;20045;-89
2022/10/16 10:39:50;;;;;;;1.10;0.82;;;;;;;-145.48;100.00;64539.38;6041034;29;20085;-88
2022/10/16 10:43:26;;;;;;;2.55;0.70;;;;;;;-145.48;100.00;64539.38;6050678;29;20052;-88
2022/10/16 10:46:47;;;;;;;1.30;0.80;;;;;;;-145.48;100.00;64539.38;6038434;29;20037;-89
2022/10/16 10:50:07;;;;;;;;;;;;;;;-145.48;100.00;64539.38;6040427;29;20068;-88
2022/10/16 10:53:31;;;;;;;1.63;0.95;;;;;;;-145.48;100.00;64539.38;6036124;29;19927;-88
2022/10/16 10:56:56;;;;;;;1.48;0.70;;;;;;;-145.48;100.00;64539.38;6045563;29;20605;-88
2022/10/16 11:00:17;;;;;;;3.10;0.70;;;;;;;-145.48;100.00;64539.38;6041483;29;20072;-89
2022/10/16 11:03:56;;;;;;;2.15;0.57;;;;;;;-145.48;100.00;64539.38;6054394;29;20041;-88
2022/10/16 11:07:03;;;;;;;1.98;0.70;;;;;;;-145.48;100.00;64539.38;6034673;29;20256;-88
2022/10/16 11:10:24;;;;;;;1.35;0.70;;;;;;;-145.48;100.00;64539.38;6035545;29;20070;-88
2022/10/16 11:13:36;;;;;;;;;;;;;;;-145.48;100.00;64539.38;6036561;29;20194;-88
2022/10/16 11:17:07;;;;;;;3.85;0.70;;;;;;;-145.48;100.00;64539.38;6052746;29;20417;-88
2022/10/16 11:20:31;;;;;;;1.65;0.60;;;;;;;-145.48;100.00;64539.38;6042828;29;20057;-88
2022/10/16 11:23:52;;;;;;;1.83;0.60;;;;;;;-145.48;100.00;64539.38;6036712;29;20096;-88
2022/10/16 11:26:56;;;;;;;2.38;0.70;;;;;;;-145.48;100.00;64539.38;6030751;29;20477;-88
2022/10/16 11:30:05;;;;;;;1.02;0.70;;;;;;;-145.48;100.00;64539.38;6047479;29;20056;-88
2022/10/16 11:33:41;;;;;;;2.15;0.60;;;;;;;-145.48;100.00;64539.38;6040658;29;20049;-88
2022/10/16 11:36:52;;;;;;;2.13;0.60;;;;;;;-145.48;100.00;64539.38;6042651;29;20496;-88
2022/10/16 11:40:03;;;;;;;1.20;0.63;;;;;;;-145.48;100.00;64539.38;6042596;29;20505;-88
2022/10/16 11:43:17;;;;;;;;;;;;;;;-145.48;100.00;64539.38;6052904;29;20127;-88
2022/10/16 11:46:23;;;;;;;0.93;0.55;;;;;;;-145.48;100.00;64539.38;6039636;29;19928;-88
2022/10/16 11:49:27;;;;;;;1.88;0.57;;;;;;;-145.48;100.00;64539.38;6045312;29;20049;-87
2022/10/16 11:52:48;;;;;;;1.90;0.55;;;;;;;-145.48;100.00;64539.38;6036222;29;20045;-87
2022/10/16 11:55:50;;;;;;;2.55;0.70;;;;;;;-145.48;100.00;64539.38;6042962;29;20128;-88
2022/10/16 11:59:24;;;;;;;3.25;0.70;;;;;;;-145.48;100.00;64539.38;6043581;29;20045;-87
2022/10/16 12:02:44;;;;;;;1.35;0.60;;;;;;;-145.48;100.00;64539.38;6042967;29;20045;-87
2022/10/16 12:05:52;;;;;;;1.15;0.75;;;;;;;-145.48;100.00;64539.38;6036511;29;20630;-88
2022/10/16 12:08:56;;;;;;;1.50;0.60;;;;;;;-145.48;100.00;64539.38;6056737;29;20201;-88
2022/10/16 12:11:59;;;;;;;1.17;0.80;;;;;;;-145.48;100.00;64539.38;6050106;29;20037;-88
2022/10/16 12:15:19;;;;;;;2.92;0.50;;;;;;;-145.48;100.00;64539.38;6047171;29;20080;-88
2022/10/16 12:18:44;;;;;;;0.50;0.50;;;;;;;-145.48;100.00;64539.38;6053274;29;20041;-88
2022/10/16 12:21:47;;;;;;;1.70;0.60;;;;;;;-145.48;100.00;64539.38;6041339;29;20045;-88
2022/10/16 12:24:52;;;;;;;1.15;0.50;;;;;;;-145.48;100.00;64539.38;6056368;29;20492;-87
2022/10/16 12:28:27;;;;;;;0.40;0.40;;;;;;;-145.48;100.00;64539.38;6040842;29;20128;-87
2022/10/16 12:31:40;;;;;;;0.98;0.50;;;;;;;-145.48;100.00;64539.38;6054074;29;20041;-88
2022/10/16 12:35:00;;;;;;;1.88;0.50;;;;;;;-145.48;100.00;64539.38;6045575;29;20587;-88
2022/10/16 12:38:16;;;;;;;1.27;0.60;;;;;;;-145.48;100.00;64539.38;6046445;29;20072;-88
2022/10/16 12:41:37;;;;;;;0.98;0.50;;;;;;;-145.48;100.00;64539.38;6042941;29;20841;-88
2022/10/16 12:44:39;;;;;;;1.20;0.47;;;;;;;-145.48;100.00;64539.38;6048006;29;20095;-88
2022/10/16 12:47:53;;;;;;;1.77;0.70;;;;;;;-145.48;100.00;64539.38;6047927;29;20512;-88
2022/10/16 12:50:55;;;;;;;0.93;0.50;;;;;;;-145.48;100.00;64539.38;6035079;29;20073;-88
2022/10/16 12:54:01;;;;;;;1.25;0.57;;;;;;;-145.48;100.00;64539.38;6040181;29;20048;-87
2022/10/16 12:57:36;;;;;;;2.20;0.52;;;;;;;-145.48;100.00;64539.38;6043713;29;21147;-87
2022/10/16 13:01:12;;;;;;;0.80;0.52;;;;;;;-145.48;100.00;64539.38;6040844;29;20045;-89
2022/10/16 13:04:36;;;;;;;2.92;0.88;;;;;;;-145.48;100.00;64539.38;6050051;29;20140;-88
2022/10/16 13:07:44;;;;;;;1.13;0.50;;;;;;;-145.48;100.00;64539.38;6058905;29;20052;-89
2022/10/16 13:11:16;;;;;;;1.02;0.50;;;;;;;-145.48;100.00;64539.38;6046701;29;20044;-88
2022/10/16 13:14:41;;;;;;;0.85;0.55;;;;;;;-145.48;100.00;64539.38;6039793;29;20424;-88
2022/10/16 13:17:58;;;;;;;1.60;0.60;;;;;;;-145.48;100.00;64539.38;6042582;29;20045;-88
2022/10/16 13:21:27;;;;;;;0.47;0.47;;;;;;;-145.48;100.00;64539.38;6043863;29;20060;-88
2022/10/16 13:24:49;;;;;;;1.40;0.50;;;;;;;-145.48;100.00;64539.38;6044017;29;20374;-88
2022/10/16 13:28:01;;;;;;;2.33;0.60;;;;;;;-145.48;100.00;64539.38;6045402;29;20053;-88
2022/10/16 13:31:04;;;;;;;0.50;0.40;;;;;;;-145.48;100.00;64539.38;6051932;29;20132;-88
2022/10/16 13:34:11;;;;;;;1.27;0.50;;;;;;;-145.48;100.00;64539.38;6047438;29;20395;-88
2022/10/16 13:37:18;;;;;;;0.52;0.38;;;;;;;-145.48;100.00;64539.38;6051255;29;20071;-89
2022/10/16 13:40:26;;;;;;;1.40;0.50;;;;;;;-145.48;100.00;64539.38;6036902;29;20064;-88
2022/10/16 13:43:38;;;;;;;1.98;0.52;;;;;;;-145.48;100.00;64539.38;6037988;29;20758;-89
2022/10/16 13:46:39;;;;;;;1.20;0.70;;;;;;;-145.48;100.00;64539.38;6053102;29;20484;-88
2022/10/16 13:49:42;;;;;;;2.58;0.90;;;;;;;-145.48;100.00;64539.38;6031822;29;20344;-88
2022/10/16 13:52:44;;;;;;;1.83;0.57;;;;;;;-145.48;100.00;64539.38;6034539;29;20113;-89
2022/10/16 13:55:46;;;;;;;2.13;0.77;;;;;;;-145.48;100.00;64539.38;6044244;29;20489;-88
2022/10/16 13:59:05;;;;;;;3.38;0.55;;;;;;;-145.48;100.00;64539.38;6042006;29;20037;-89
2022/10/16 14:02:24;;;;;;;1.88;0.90;;;;;;;-145.48;100.00;64539.38;6039060;29;20037;-89
2022/10/16 14:05:27;;;;;;;0.67;0.60;;;;;;;-145.48;100.00;64539.38;6030699;29;20045;-89
2022/10/16 14:08:30;;;;;;;2.20;0.70;;;;;;;-145.48;100.00;64539.38;6035083;29;20532;-89
2022/10/16 14:11:36;;;;;;;1.33;0.50;;;;;;;-145.48;100.00;64539.38;6038086;29;20531;-89
2022/10/16 14:14:53;;;;;;;1.20;0.60;;;;;;;-145.48;100.00;64539.38;6050323;29;20045;-89